Time;durP1;ratioP1;P1;durP2;ratioP2;P2;SDS_P1;SDS_P2;PMS_P1;PMS_P2;Temp;Humidity;BMP_temperature;BMP_pressure;BME280_temperature;BME280_humidity;BME280_pressure;Samples;Min_cycle;Max_cycle;Signal;HPM_P1;HPM_P2
2022/11/20 00:04:41;;;;;;;14.90;13.70;;;9.30;99.90;;;;;;10314394;28;20219;-79
2022/11/20 00:09:43;;;;;;;15.07;13.87;;;9.30;99.90;;;;;;10343440;28;20187;-80
2022/11/20 00:14:46;;;;;;;16.37;14.97;;;9.30;99.90;;;;;;10314254;28;20257;-79
2022/11/20 00:19:48;;;;;;;16.20;14.80;;;9.30;99.90;;;;;;10344448;28;20239;-78
2022/11/20 00:24:51;;;;;;;14.47;13.27;;;9.40;99.90;;;;;;10323947;28;20278;-78
2022/11/20 00:29:54;;;;;;;12.30;11.40;;;9.40;99.90;;;;;;10313600;28;20187;-80
2022/11/20 00:34:56;;;;;;;8.73;8.17;;;9.40;99.90;;;;;;10324541;28;20227;-78
2022/11/20 00:39:58;;;;;;;9.23;8.63;;;9.40;99.90;;;;;;10295060;28;20242;-80
2022/11/20 00:45:02;;;;;;;13.17;12.20;;;9.40;99.90;;;;;;10317187;28;20265;-79
2022/11/20 00:50:04;;;;;;;8.17;7.67;;;9.40;99.90;;;;;;10333991;28;20196;-79
2022/11/20 00:55:07;;;;;;;7.57;7.07;;;9.50;99.90;;;;;;10311215;28;20704;-80
2022/11/20 01:00:11;;;;;;;7.53;7.03;;;9.50;99.90;;;;;;10325290;28;20220;-79
2022/11/20 01:05:13;;;;;;;9.53;8.73;;;9.40;99.90;;;;;;10364945;23;20226;-82
2022/11/20 01:10:16;;;;;;;6.87;6.40;;;9.40;99.90;;;;;;10378387;28;20188;-82
2022/11/20 01:15:19;;;;;;;9.23;8.30;;;9.40;99.90;;;;;;10348191;28;20219;-82
2022/11/20 01:20:21;;;;;;;5.97;5.67;;;9.40;99.90;;;;;;10378036;28;20594;-82
2022/11/20 01:25:23;;;;;;;6.37;5.77;;;9.40;99.90;;;;;;10348824;28;20241;-80
2022/11/20 01:30:27;;;;;;;8.00;7.30;;;9.40;99.90;;;;;;10391027;28;20199;-79
2022/11/20 01:35:29;;;;;;;6.50;5.90;;;9.40;99.90;;;;;;10336470;28;20220;-80
2022/11/20 01:40:31;;;;;;;5.67;5.27;;;9.40;99.90;;;;;;10373435;28;20228;-79
2022/11/20 01:45:57;;;;;;;5.90;5.60;;;9.40;99.90;;;;;;10365521;28;20246;-79
2022/11/20 01:51:01;;;;;;;5.83;5.43;;;9.40;99.90;;;;;;10336281;28;20207;-80
2022/11/20 01:56:06;;;;;;;6.80;6.30;;;9.40;99.90;;;;;;10367810;28;20242;-79
2022/11/20 02:01:10;;;;;;;6.53;6.03;;;9.40;99.90;;;;;;10335957;28;20209;-79
2022/11/20 02:06:17;;;;;;;5.70;5.40;;;9.40;99.90;;;;;;10367583;28;20240;-79
2022/11/20 02:11:19;;;;;;;6.43;5.93;;;9.30;99.90;;;;;;10338267;28;20211;-79
2022/11/20 02:16:26;;;;;;;6.60;6.10;;;9.40;99.90;;;;;;10369985;28;20226;-79
2022/11/20 02:21:35;;;;;;;5.80;5.50;;;9.30;99.90;;;;;;10337911;28;20206;-79
2022/11/20 02:26:50;;;;;;;6.73;6.07;;;9.40;99.90;;;;;;10367358;28;20188;-78
2022/11/20 02:31:54;;;;;;;6.30;5.90;;;9.40;99.90;;;;;;10337103;28;20301;-79
2022/11/20 02:36:58;;;;;;;5.63;5.33;;;9.30;99.90;;;;;;10372846;28;20227;-80
2022/11/20 02:42:02;;;;;;;6.53;5.93;;;9.30;99.90;;;;;;10342259;28;20497;-81
2022/11/20 02:47:05;;;;;;;6.70;6.30;;;9.20;99.90;;;;;;10358695;28;20221;-81
2022/11/20 02:52:07;;;;;;;6.70;6.20;;;9.20;99.90;;;;;;10353012;28;20254;-81
2022/11/20 02:57:10;;;;;;;6.80;6.40;;;9.30;99.90;;;;;;10341876;28;20517;-81
2022/11/20 03:02:12;;;;;;;7.17;6.77;;;9.20;99.90;;;;;;10353853;28;20242;-82
2022/11/20 03:07:14;;;;;;;6.77;6.37;;;9.30;99.90;;;;;;10340860;28;20198;-82
2022/11/20 03:12:18;;;;;;;7.07;6.57;;;9.30;99.90;;;;;;10352273;28;20228;-77
2022/11/20 03:17:20;;;;;;;6.87;6.37;;;9.30;99.90;;;;;;10322328;28;20217;-80
2022/11/20 03:22:22;;;;;;;7.10;6.70;;;9.30;99.90;;;;;;10374141;28;20306;-79
2022/11/20 03:27:25;;;;;;;6.57;6.13;;;9.40;99.90;;;;;;10340243;28;20237;-79
2022/11/20 03:32:27;;;;;;;7.00;6.50;;;9.40;99.90;;;;;;10377898;28;20587;-77
2022/11/20 03:37:29;;;;;;;7.80;7.20;;;9.30;99.90;;;;;;10357695;28;20786;-76
2022/11/20 03:42:45;;;;;;;6.43;6.03;;;9.30;99.90;;;;;;10355472;28;20215;-77
2022/11/20 03:47:47;;;;;;;7.60;7.00;;;9.20;99.90;;;;;;10373554;28;20230;-79
2022/11/20 03:52:49;;;;;;;6.97;6.50;;;9.10;99.90;;;;;;10339236;28;20220;-78
2022/11/20 03:57:53;;;;;;;6.60;6.20;;;9.10;99.90;;;;;;10373380;28;20234;-77
2022/11/20 04:02:58;;;;;;;6.67;6.17;;;9.00;99.90;;;;;;10337636;28;20231;-81
2022/11/20 04:08:00;;;;;;;6.60;6.00;;;8.90;99.90;;;;;;10373940;28;20217;-77
2022/11/20 04:13:03;;;;;;;9.60;8.73;;;8.80;99.90;;;;;;10337348;28;20225;-78
2022/11/20 04:18:06;;;;;;;6.70;6.03;;;8.70;99.90;;;;;;10372658;28;20699;-80
2022/11/20 04:23:08;;;;;;;7.30;6.70;;;8.70;99.90;;;;;;10335232;28;20782;-80
2022/11/20 04:28:11;;;;;;;6.47;6.07;;;8.70;99.90;;;;;;10372830;28;20229;-79
2022/11/20 04:33:13;;;;;;;7.43;6.83;;;8.70;99.90;;;;;;10335799;28;20246;-77
2022/11/20 04:38:15;;;;;;;7.10;6.63;;;8.70;99.90;;;;;;10373109;28;20237;-77
2022/11/20 04:43:18;;;;;;;6.20;5.70;;;8.60;99.90;;;;;;10358928;28;20219;-78
2022/11/20 04:48:20;;;;;;;6.37;5.97;;;8.60;99.90;;;;;;10378926;28;20202;-79
2022/11/20 04:53:23;;;;;;;6.40;6.00;;;8.70;99.90;;;;;;10330663;28;20227;-79
2022/11/20 04:58:27;;;;;;;7.37;6.77;;;8.70;99.90;;;;;;10393800;28;20250;-79
2022/11/20 05:03:29;;;;;;;6.73;6.33;;;8.80;99.90;;;;;;10348038;28;20707;-80
2022/11/20 05:08:32;;;;;;;6.93;6.53;;;8.90;99.90;;;;;;10378599;28;20198;-79
2022/11/20 05:13:36;;;;;;;6.00;5.70;;;8.90;99.90;;;;;;10336371;28;20223;-79
2022/11/20 05:18:39;;;;;;;7.63;7.13;;;9.00;99.90;;;;;;10374964;28;20730;-79
2022/11/20 05:23:42;;;;;;;7.43;6.80;;;9.10;99.90;;;;;;10339629;28;20219;-79
2022/11/20 05:28:46;;;;;;;6.57;6.17;;;9.10;99.90;;;;;;10378076;28;20674;-80
2022/11/20 05:33:48;;;;;;;6.83;6.33;;;9.10;99.90;;;;;;10339143;28;20835;-81
2022/11/20 05:38:50;;;;;;;7.23;6.63;;;9.20;99.90;;;;;;10374742;28;20222;-82
2022/11/20 05:43:54;;;;;;;6.20;5.80;;;9.20;99.90;;;;;;10373609;28;20686;-78
2022/11/20 05:48:57;;;;;;;6.60;6.10;;;9.30;99.90;;;;;;10334862;28;20207;-78
2022/11/20 05:53:59;;;;;;;5.67;5.27;;;9.30;99.90;;;;;;10368233;28;20217;-78
2022/11/20 05:59:02;;;;;;;5.83;5.43;;;9.30;99.90;;;;;;10334692;28;20223;-79
2022/11/20 06:04:05;;;;;;;5.73;5.43;;;9.20;99.90;;;;;;10368079;28;20230;-78
2022/11/20 06:09:07;;;;;;;5.70;5.40;;;9.20;99.90;;;;;;10333791;28;20203;-79
2022/11/20 06:14:10;;;;;;;5.33;5.03;;;9.10;99.90;;;;;;10366714;28;20245;-78
2022/11/20 06:19:12;;;;;;;5.90;5.50;;;9.10;99.90;;;;;;10333605;28;20215;-78
2022/11/20 06:24:14;;;;;;;5.50;5.20;;;9.10;99.90;;;;;;10329625;28;20222;-78
2022/11/20 06:29:18;;;;;;;5.40;5.10;;;9.10;99.90;;;;;;10364881;28;20842;-78
2022/11/20 06:34:20;;;;;;;5.80;5.40;;;9.10;99.90;;;;;;10334627;28;20626;-78
2022/11/20 06:39:22;;;;;;;5.30;5.00;;;9.00;99.90;;;;;;10363401;28;20298;-78
2022/11/20 06:44:26;;;;;;;5.80;5.30;;;9.00;99.90;;;;;;10358640;28;20245;-79
2022/11/20 06:49:28;;;;;;;5.10;4.77;;;9.00;99.90;;;;;;10335661;28;20286;-79
2022/11/20 06:54:29;;;;;;;4.63;4.33;;;9.00;99.90;;;;;;10361235;28;20214;-79
2022/11/20 06:59:33;;;;;;;11.63;8.60;;;9.00;99.90;;;;;;10333764;28;20763;-79
2022/11/20 07:04:35;;;;;;;5.43;5.13;;;9.00;99.90;;;;;;10372060;28;20228;-81
2022/11/20 07:09:37;;;;;;;5.70;5.37;;;9.00;99.90;;;;;;10338668;28;20195;-77
2022/11/20 07:14:40;;;;;;;6.27;5.63;;;9.00;99.90;;;;;;10361490;28;20214;-77
2022/11/20 07:19:43;;;;;;;5.10;4.77;;;9.00;99.90;;;;;;10336605;28;20658;-78
2022/11/20 07:24:45;;;;;;;6.30;5.90;;;9.10;99.90;;;;;;10361746;28;20277;-77
2022/11/20 07:29:48;;;;;;;7.30;6.60;;;9.10;99.90;;;;;;10338450;28;20199;-77
2022/11/20 07:34:50;;;;;;;6.10;5.70;;;9.10;99.90;;;;;;10360074;28;20540;-80
2022/11/20 07:39:52;;;;;;;6.07;5.63;;;9.20;99.90;;;;;;10339058;28;20241;-77
2022/11/20 07:44:56;;;;;;;4.93;4.63;;;9.20;99.90;;;;;;10305948;28;20247;-76
2022/11/20 07:49:58;;;;;;;6.10;5.60;;;9.30;99.90;;;;;;10347238;28;20205;-77
2022/11/20 07:55:00;;;;;;;3.90;3.70;;;9.30;99.90;;;;;;10340383;28;20216;-79
2022/11/20 08:00:05;;;;;;;4.13;3.90;;;9.40;99.90;;;;;;10363214;28;20219;-78
2022/11/20 08:05:14;;;;;;;4.30;4.00;;;9.50;99.90;;;;;;10348084;28;20223;-79
2022/11/20 08:10:17;;;;;;;5.50;5.00;;;9.60;99.90;;;;;;10366171;28;20229;-78
2022/11/20 08:15:20;;;;;;;5.20;4.90;;;9.60;99.90;;;;;;10347342;28;20219;-79
2022/11/20 08:20:22;;;;;;;5.27;5.00;;;9.70;99.90;;;;;;10366313;28;20246;-78
2022/11/20 08:25:24;;;;;;;4.83;4.53;;;9.70;99.90;;;;;;10308638;28;20259;-78
2022/11/20 08:30:28;;;;;;;3.40;3.20;;;9.70;99.90;;;;;;10353668;28;20187;-78
2022/11/20 08:35:34;;;;;;;5.10;4.77;;;9.80;99.90;;;;;;10348377;28;20289;-79
2022/11/20 08:40:36;;;;;;;4.37;4.17;;;9.80;99.90;;;;;;10364802;28;20217;-80
2022/11/20 08:45:40;;;;;;;4.13;3.93;;;9.80;99.90;;;;;;10371407;28;20662;-79
2022/11/20 08:50:42;;;;;;;4.30;4.10;;;9.80;99.90;;;;;;10349662;28;20278;-80
2022/11/20 08:55:44;;;;;;;4.17;3.87;;;9.90;99.90;;;;;;10363263;28;20629;-78
2022/11/20 09:00:48;;;;;;;4.00;3.80;;;10.00;99.90;;;;;;10350487;28;20302;-79
2022/11/20 09:05:50;;;;;;;3.67;3.57;;;10.20;99.90;;;;;;10360759;28;20226;-79
2022/11/20 09:10:52;;;;;;;4.43;4.23;;;10.30;99.90;;;;;;10347534;28;20615;-79
2022/11/20 09:15:59;;;;;;;5.50;3.77;;;10.40;99.90;;;;;;10358752;28;20194;-79
2022/11/20 09:21:03;;;;;;;4.03;3.83;;;10.50;99.90;;;;;;10346212;28;20309;-80
2022/11/20 09:26:06;;;;;;;4.23;4.03;;;10.50;99.90;;;;;;10356707;28;20198;-77
2022/11/20 09:31:15;;;;;;;3.50;3.40;;;10.60;99.90;;;;;;10346272;28;20286;-78
2022/11/20 09:36:18;;;;;;;3.50;3.23;;;10.60;99.90;;;;;;10355551;28;20671;-77
2022/11/20 09:41:40;;;;;;;3.70;3.50;;;10.60;99.90;;;;;;10346769;28;20227;-78
2022/11/20 09:46:54;;;;;;;3.50;3.30;;;10.60;99.90;;;;;;10337753;28;20660;-79
2022/11/20 09:51:59;;;;;;;3.10;3.00;;;10.60;99.90;;;;;;10342794;28;20219;-79
2022/11/20 09:57:04;;;;;;;3.00;2.90;;;10.60;99.90;;;;;;10369761;28;20194;-80
2022/11/20 10:02:18;;;;;;;3.00;2.90;;;10.70;99.90;;;;;;10349193;28;20283;-79
2022/11/20 10:07:25;;;;;;;3.20;3.10;;;10.70;99.90;;;;;;10365240;28;20266;-79
2022/11/20 10:12:36;;;;;;;2.90;2.70;;;10.70;99.90;;;;;;10345179;28;20215;-80
2022/11/20 10:17:59;;;;;;;3.10;3.00;;;10.70;99.90;;;;;;10349981;28;20225;-81
2022/11/20 10:23:22;;;;;;;3.60;3.40;;;10.60;99.90;;;;;;10325301;28;20273;-80
2022/11/20 10:28:35;;;;;;;4.27;3.97;;;10.60;99.90;;;;;;10370435;28;20496;-80
2022/11/20 10:33:42;;;;;;;4.80;4.60;;;10.60;99.90;;;;;;10338090;28;20234;-80
2022/11/20 10:38:49;;;;;;;4.13;4.03;;;10.50;99.90;;;;;;10372289;28;20222;-80
2022/11/20 10:43:55;;;;;;;4.40;4.20;;;10.40;99.90;;;;;;10355212;28;20215;-78
2022/11/20 10:48:59;;;;;;;4.73;4.47;;;10.30;99.90;;;;;;10335492;28;20286;-80
2022/11/20 10:54:13;;;;;;;5.30;5.00;;;10.20;99.90;;;;;;10373292;28;20273;-80
2022/11/20 10:59:42;;;;;;;5.60;5.40;;;10.10;99.90;;;;;;10338107;28;20215;-80
2022/11/20 11:04:48;;;;;;;5.50;5.20;;;9.90;99.90;;;;;;10300052;28;20731;-80
2022/11/20 11:09:53;;;;;;;6.00;5.70;;;9.90;99.90;;;;;;10379411;28;20700;-80
2022/11/20 11:14:57;;;;;;;4.80;4.60;;;9.90;99.90;;;;;;10357029;28;20270;-81
2022/11/20 11:20:07;;;;;;;6.80;6.50;;;9.90;99.90;;;;;;10373953;28;20242;-80
2022/11/20 11:25:19;;;;;;;6.90;6.60;;;9.90;99.90;;;;;;10338050;28;20215;-80
2022/11/20 11:30:21;;;;;;;7.27;6.80;;;9.90;99.90;;;;;;10372189;28;20198;-81
2022/11/20 11:35:28;;;;;;;14.73;13.33;;;9.90;99.90;;;;;;10346024;28;20226;-80
2022/11/20 11:40:33;;;;;;;8.43;7.83;;;9.90;99.90;;;;;;10391168;28;20211;-79
2022/11/20 11:45:36;;;;;;;7.90;7.47;;;9.80;99.90;;;;;;10388502;28;20598;-79
2022/11/20 11:50:49;;;;;;;7.00;6.70;;;9.70;99.90;;;;;;10340255;28;20203;-80
2022/11/20 11:55:57;;;;;;;7.80;7.40;;;9.60;99.90;;;;;;10373471;28;20211;-79
2022/11/20 12:01:08;;;;;;;7.17;6.77;;;9.50;99.90;;;;;;10341980;28;20268;-80
2022/11/20 12:06:14;;;;;;;9.00;8.40;;;9.50;99.90;;;;;;10374769;28;20192;-79
2022/11/20 12:11:22;;;;;;;6.57;6.00;;;9.50;99.90;;;;;;10344188;28;20202;-80
2022/11/20 12:16:25;;;;;;;6.63;6.33;;;9.50;99.90;;;;;;10374216;28;20207;-80
2022/11/20 12:21:36;;;;;;;5.67;5.37;;;9.40;99.90;;;;;;10344777;28;20215;-79
2022/11/20 12:26:57;;;;;;;6.97;6.57;;;9.50;99.90;;;;;;10373197;28;20278;-80
2022/11/20 12:32:32;;;;;;;7.67;6.90;;;9.60;99.90;;;;;;10331091;28;20733;-80
2022/11/20 12:37:46;;;;;;;6.00;5.70;;;9.80;99.90;;;;;;10367881;28;20295;-79
2022/11/20 12:48:43;;;;;;;6.47;5.73;;;9.80;99.90;;;;;;10363932;28;20278;-79
2022/11/20 12:53:59;;;;;;;4.93;4.73;;;9.90;99.90;;;;;;10360015;28;20227;-79
2022/11/20 12:59:18;;;;;;;9.67;8.77;;;10.00;99.90;;;;;;10362905;28;20210;-79
2022/11/20 13:04:52;;;;;;;4.90;4.00;;;10.10;99.90;;;;;;10360173;28;20230;-79
2022/11/20 13:09:56;;;;;;;3.03;2.90;;;10.10;99.90;;;;;;10352661;28;20277;-79
2022/11/20 13:15:11;;;;;;;3.80;3.50;;;10.20;99.90;;;;;;10359659;28;20223;-80
2022/11/20 13:20:16;;;;;;;4.97;4.67;;;10.30;99.90;;;;;;10380842;28;20219;-78
2022/11/20 13:25:41;;;;;;;4.60;4.40;;;10.40;99.90;;;;;;10348633;28;20222;-80
2022/11/20 13:30:52;;;;;;;4.10;3.83;;;10.60;99.90;;;;;;10347016;28;20282;-78
2022/11/20 13:35:58;;;;;;;4.10;4.00;;;10.60;99.90;;;;;;10338787;28;20294;-78
2022/11/20 13:41:27;;;;;;;4.00;3.70;;;10.60;99.90;;;;;;10354356;28;20225;-78
2022/11/20 13:46:35;;;;;;;4.47;4.07;;;10.60;99.90;;;;;;10335958;28;20198;-79
2022/11/20 13:51:43;;;;;;;4.57;4.37;;;10.50;99.90;;;;;;10366869;28;20257;-78
2022/11/20 13:56:59;;;;;;;4.50;4.20;;;10.40;99.90;;;;;;10335200;28;20203;-77
2022/11/20 14:02:02;;;;;;;4.17;3.87;;;10.40;99.90;;;;;;10367331;28;20217;-78
2022/11/20 14:07:07;;;;;;;4.50;4.20;;;10.50;99.90;;;;;;10332798;28;20191;-78
2022/11/20 14:12:18;;;;;;;3.93;3.73;;;10.50;99.90;;;;;;10368429;28;20214;-79
2022/11/20 14:17:23;;;;;;;3.83;3.63;;;10.50;99.90;;;;;;10333149;28;20250;-78
2022/11/20 14:22:26;;;;;;;4.03;3.83;;;10.40;99.90;;;;;;10368549;28;20309;-78
2022/11/20 14:27:33;;;;;;;5.17;4.77;;;10.30;99.90;;;;;;10331163;28;20229;-77
2022/11/20 14:32:37;;;;;;;4.13;3.93;;;10.30;99.90;;;;;;10367895;28;20585;-79
2022/11/20 14:37:41;;;;;;;5.13;4.63;;;10.20;99.90;;;;;;10331449;28;20195;-79
2022/11/20 14:42:45;;;;;;;5.37;5.00;;;10.20;99.90;;;;;;10358977;28;20306;-78
2022/11/20 14:47:49;;;;;;;4.80;4.50;;;10.20;99.90;;;;;;10368030;28;20285;-78
2022/11/20 14:52:52;;;;;;;4.87;4.17;;;10.20;99.90;;;;;;10334321;28;20233;-78
2022/11/20 14:58:01;;;;;;;4.70;4.30;;;10.10;99.90;;;;;;10366910;28;20203;-77
2022/11/20 15:03:03;;;;;;;3.70;3.50;;;10.10;99.90;;;;;;10333449;28;20229;-78
2022/11/20 15:08:08;;;;;;;4.60;4.30;;;10.00;99.90;;;;;;10368741;28;20637;-77
2022/11/20 15:13:15;;;;;;;4.73;4.43;;;10.00;99.90;;;;;;10339651;28;20230;-79
2022/11/20 15:18:19;;;;;;;4.97;4.67;;;10.00;99.90;;;;;;10368465;28;20220;-78
2022/11/20 15:23:21;;;;;;;4.97;4.67;;;9.90;99.90;;;;;;10356308;28;20217;-77
2022/11/20 15:28:31;;;;;;;4.60;4.30;;;9.90;99.90;;;;;;10371726;28;20202;-77
2022/11/20 15:33:34;;;;;;;4.27;3.87;;;9.80;99.90;;;;;;10339760;28;20246;-78
2022/11/20 15:38:36;;;;;;;4.60;4.33;;;9.80;99.90;;;;;;10372848;28;20678;-78
2022/11/20 15:43:39;;;;;;;4.27;4.07;;;9.70;99.90;;;;;;10356042;28;20222;-78
2022/11/20 15:48:44;;;;;;;6.40;5.90;;;9.70;99.90;;;;;;10339472;28;20265;-79
2022/11/20 15:53:46;;;;;;;5.77;5.37;;;9.60;99.90;;;;;;10372801;28;20222;-78
2022/11/20 15:58:50;;;;;;;5.00;4.60;;;9.50;99.90;;;;;;10339087;28;20211;-77
2022/11/20 16:03:52;;;;;;;4.63;4.33;;;9.50;99.90;;;;;;10335008;28;20688;-78
2022/11/20 16:08:58;;;;;;;5.67;5.17;;;9.50;99.90;;;;;;10370159;28;20245;-78
2022/11/20 16:19:21;;;;;;;4.90;4.60;;;9.50;99.90;;;;;;10371856;28;20682;-78
2022/11/20 16:24:23;;;;;;;6.10;5.57;;;9.40;99.90;;;;;;10357177;28;20252;-76
2022/11/20 16:29:27;;;;;;;7.20;6.60;;;9.40;99.90;;;;;;10339435;28;20202;-77
2022/11/20 16:34:29;;;;;;;5.20;4.90;;;9.40;99.90;;;;;;10370008;28;20297;-78
2022/11/20 16:39:31;;;;;;;5.40;5.00;;;9.40;99.90;;;;;;10336665;28;20215;-77
2022/11/20 16:44:34;;;;;;;4.63;4.33;;;9.40;99.90;;;;;;10345829;28;20664;-78
2022/11/20 16:49:36;;;;;;;6.07;5.67;;;9.40;99.90;;;;;;10369965;28;20636;-79
2022/11/20 16:54:38;;;;;;;7.70;7.00;;;9.40;99.90;;;;;;10339677;28;20341;-79
2022/11/20 16:59:42;;;;;;;5.20;4.90;;;9.40;99.90;;;;;;10367240;28;20305;-80
2022/11/20 17:04:44;;;;;;;4.17;3.97;;;9.40;99.90;;;;;;10338771;28;20262;-77
2022/11/20 17:09:46;;;;;;;5.30;4.77;;;9.40;99.90;;;;;;10366081;28;20199;-79
2022/11/20 17:14:49;;;;;;;6.03;5.47;;;9.50;99.90;;;;;;10368400;28;20210;-76
2022/11/20 17:19:51;;;;;;;5.03;4.63;;;9.50;99.90;;;;;;10338074;28;20684;-78
2022/11/20 17:24:53;;;;;;;4.90;4.60;;;9.50;99.90;;;;;;10365769;28;20230;-77
2022/11/20 17:30:00;;;;;;;6.10;5.60;;;9.50;99.90;;;;;;10338874;28;20196;-78
2022/11/20 17:35:02;;;;;;;5.50;4.93;;;9.50;99.90;;;;;;10363681;28;20218;-78
2022/11/20 17:40:05;;;;;;;6.40;5.80;;;9.50;99.90;;;;;;10338855;28;20245;-78
2022/11/20 17:45:08;;;;;;;4.27;3.97;;;9.50;99.90;;;;;;10334937;28;20642;-78
2022/11/20 17:50:10;;;;;;;5.60;5.20;;;9.50;99.90;;;;;;10361699;28;20195;-76
2022/11/20 17:55:12;;;;;;;4.73;4.43;;;9.60;99.90;;;;;;10339318;28;20218;-78
2022/11/20 18:00:17;;;;;;;5.13;4.77;;;9.60;99.90;;;;;;10362442;28;20250;-77
2022/11/20 18:05:19;;;;;;;4.60;4.30;;;9.60;99.90;;;;;;10337721;28;20269;-78
2022/11/20 18:10:21;;;;;;;4.73;4.50;;;9.60;99.90;;;;;;10360098;28;20325;-77
2022/11/20 18:15:25;;;;;;;4.90;4.53;;;9.60;99.90;;;;;;10353898;28;20234;-78
2022/11/20 18:20:27;;;;;;;5.10;4.70;;;9.60;99.90;;;;;;10340283;28;20233;-79
2022/11/20 18:25:29;;;;;;;5.80;5.40;;;9.60;99.90;;;;;;10359660;28;20218;-80
2022/11/20 18:30:32;;;;;;;4.37;4.07;;;9.60;99.90;;;;;;10340860;28;20215;-77
2022/11/20 18:35:34;;;;;;;5.00;4.60;;;9.60;99.90;;;;;;10359540;28;20228;-77
2022/11/20 18:40:36;;;;;;;5.77;5.27;;;9.50;99.90;;;;;;10370205;28;20313;-76
2022/11/20 18:45:40;;;;;;;5.63;5.13;;;9.50;99.90;;;;;;10367295;28;20260;-78
2022/11/20 18:50:42;;;;;;;6.43;6.03;;;9.50;99.90;;;;;;10339769;28;20702;-77
2022/11/20 18:55:44;;;;;;;4.97;4.40;;;9.50;99.90;;;;;;10338896;28;20683;-78
2022/11/20 19:00:47;;;;;;;5.27;4.90;;;9.40;99.90;;;;;;10341011;28;20606;-79
2022/11/20 19:05:49;;;;;;;5.33;4.93;;;9.20;99.90;;;;;;10415858;23;20226;-82
2022/11/20 19:10:51;;;;;;;6.17;5.70;;;9.10;99.90;;;;;;10383037;28;20285;-82
2022/11/20 19:15:55;;;;;;;5.67;5.37;;;8.90;99.90;;;;;;10418891;28;20213;-80
2022/11/20 19:20:57;;;;;;;5.80;5.40;;;8.80;99.90;;;;;;10420541;28;20221;-78
2022/11/20 19:26:00;;;;;;;5.30;5.00;;;8.70;99.90;;;;;;10446296;28;20213;-79
2022/11/20 19:31:05;;;;;;;4.70;4.40;;;8.50;99.90;;;;;;10448871;28;20674;-78
2022/11/20 19:36:11;;;;;;;4.47;4.27;;;8.40;99.90;;;;;;10415951;28;20275;-79
2022/11/20 19:41:15;;;;;;;4.77;4.57;;;8.30;99.90;;;;;;10385124;28;20232;-78
2022/11/20 19:46:20;;;;;;;4.20;4.00;;;8.30;99.90;;;;;;10429439;28;20224;-81
2022/11/20 19:51:24;;;;;;;4.43;4.23;;;8.20;99.90;;;;;;10387633;28;20205;-83
2022/11/20 19:56:28;;;;;;;4.70;4.40;;;8.20;99.90;;;;;;10382869;28;20214;-81
2022/11/20 20:01:32;;;;;;;4.37;4.17;;;8.20;99.90;;;;;;10419094;28;20228;-79
2022/11/20 20:06:37;;;;;;;4.40;4.13;;;8.20;99.90;;;;;;10400856;28;20669;-79
2022/11/20 20:11:40;;;;;;;7.40;6.80;;;8.20;99.90;;;;;;10405282;28;20194;-81
2022/11/20 20:16:44;;;;;;;4.43;4.23;;;8.20;99.90;;;;;;10405733;28;20253;-79
2022/11/20 20:21:46;;;;;;;3.67;3.57;;;8.30;99.90;;;;;;10421389;28;20677;-81
2022/11/20 20:26:48;;;;;;;4.27;4.07;;;8.30;99.90;;;;;;10421086;28;20258;-80
2022/11/20 20:31:52;;;;;;;4.33;4.13;;;8.30;99.90;;;;;;10419886;28;20218;-81
2022/11/20 20:36:56;;;;;;;3.57;3.47;;;8.40;99.90;;;;;;10412207;28;20206;-83
2022/11/20 20:41:58;;;;;;;4.10;4.00;;;8.40;99.90;;;;;;10410863;28;20225;-80
2022/11/20 20:47:02;;;;;;;4.10;3.80;;;8.50;99.90;;;;;;10427217;28;20221;-83
2022/11/20 20:52:07;;;;;;;3.53;3.43;;;8.50;99.90;;;;;;10427720;28;20578;-82
2022/11/20 20:57:09;;;;;;;3.50;3.40;;;8.50;99.90;;;;;;10409910;28;20217;-82
2022/11/20 21:02:12;;;;;;;4.00;3.90;;;8.40;99.90;;;;;;10409996;28;20682;-82
2022/11/20 21:07:14;;;;;;;3.47;3.37;;;8.40;99.90;;;;;;10431769;28;20204;-81
2022/11/20 21:12:16;;;;;;;3.40;3.30;;;8.40;99.90;;;;;;10419810;28;20308;-82
2022/11/20 21:17:20;;;;;;;3.73;3.63;;;8.40;99.90;;;;;;10412573;28;20281;-82
2022/11/20 21:22:22;;;;;;;3.83;3.73;;;8.40;99.90;;;;;;10424272;28;20221;-82
2022/11/20 21:27:24;;;;;;;3.70;3.60;;;8.40;99.90;;;;;;10405845;28;20301;-81
2022/11/20 21:32:27;;;;;;;4.30;3.97;;;8.50;99.90;;;;;;10407302;28;20659;-82
2022/11/20 21:37:29;;;;;;;3.30;3.20;;;8.50;99.90;;;;;;10407647;28;20198;-82
2022/11/20 21:42:31;;;;;;;3.83;3.63;;;8.50;99.90;;;;;;10411544;28;20686;-82
2022/11/20 21:47:35;;;;;;;3.97;3.80;;;8.40;99.90;;;;;;10409197;28;20237;-82
2022/11/20 21:52:37;;;;;;;3.50;3.40;;;8.30;99.90;;;;;;10404316;28;20329;-82
2022/11/20 21:57:39;;;;;;;4.20;3.97;;;8.30;99.90;;;;;;10407770;28;20206;-80
2022/11/20 22:02:42;;;;;;;4.20;4.00;;;8.30;99.90;;;;;;10406731;28;20288;-82
2022/11/20 22:07:45;;;;;;;4.20;4.10;;;8.20;99.90;;;;;;10421931;28;20225;-82
2022/11/20 22:12:47;;;;;;;4.00;3.80;;;8.30;99.90;;;;;;10404489;28;20598;-79
2022/11/20 22:23:10;;;;;;;4.20;4.00;;;8.30;99.90;;;;;;10404390;28;20249;-80
2022/11/20 22:28:12;;;;;;;4.00;3.80;;;8.30;99.90;;;;;;10383650;28;20202;-80
2022/11/20 22:33:15;;;;;;;3.80;3.60;;;8.40;99.90;;;;;;10420821;28;20759;-81
2022/11/20 22:38:17;;;;;;;3.57;3.47;;;8.40;99.90;;;;;;10402913;28;20609;-82
2022/11/20 22:43:19;;;;;;;4.23;4.13;;;8.40;99.90;;;;;;10404290;28;20234;-82
2022/11/20 22:48:23;;;;;;;4.40;4.20;;;8.50;99.90;;;;;;10403437;28;20677;-82
2022/11/20 22:53:25;;;;;;;3.77;3.67;;;8.50;99.90;;;;;;10386253;28;20246;-82
2022/11/20 22:58:29;;;;;;;3.80;3.70;;;8.50;99.90;;;;;;10420266;28;20258;-82
2022/11/20 23:03:32;;;;;;;3.30;3.20;;;8.50;99.90;;;;;;10421218;28;20260;-82
2022/11/20 23:08:34;;;;;;;3.50;3.30;;;8.40;99.90;;;;;;10421224;28;20899;-83
2022/11/20 23:13:37;;;;;;;3.53;3.43;;;8.40;99.90;;;;;;10388206;28;20709;-82
2022/11/20 23:18:42;;;;;;;3.20;3.10;;;8.40;99.90;;;;;;10422783;28;20205;-80
2022/11/20 23:23:48;;;;;;;3.10;3.00;;;8.40;99.90;;;;;;10405541;28;20320;-82
2022/11/20 23:28:50;;;;;;;3.07;2.90;;;8.50;99.90;;;;;;10408955;28;20206;-83
2022/11/20 23:33:53;;;;;;;3.23;3.13;;;8.50;99.90;;;;;;10412184;28;20229;-82
2022/11/20 23:38:55;;;;;;;4.00;3.80;;;8.50;99.90;;;;;;10425286;28;20197;-81
2022/11/20 23:43:59;;;;;;;3.20;3.10;;;8.50;99.90;;;;;;10423011;28;20234;-81
2022/11/20 23:49:02;;;;;;;3.80;3.50;;;8.50;99.90;;;;;;10391471;28;20273;-82
2022/11/20 23:54:04;;;;;;;3.10;3.00;;;8.40;99.90;;;;;;10425150;28;20300;-80
2022/11/20 23:59:07;;;;;;;3.67;3.40;;;8.50;99.90;;;;;;10424359;28;20209;-81
